Terminal Aerodrome Forecast
Issued by NWS

Home | Current Version | Previous Version | Text Only | Print | Product List | Glossary On
Versions: 1 2 3 4 5 6 7 8 9 10 11 12 13 14 15 16 17 18 19
620
FTAK31 PAJN 211722
TAFASI
TAF
PASI 211722Z 2118/2218 14010KT 6SM -RA BR SCT015 OVC035
      WS020/15040KT
     FM212000 12018G28KT 4SM RA BR OVC015 WS020/15045KT
     FM220000 14011KT P6SM -RA SCT015 OVC025
     FM220600 15007KT P6SM -SHRA BKN030 OVC050=

USA.gov is the U.S. government's official web portal to all federal, state and local government web resources and services.